sensor_id;sensor_type;location;lat;lon;timestamp;P1;durP1;ratioP1;P2;durP2;ratioP2
22675;SDS011;12521;43.310;21.876;2023-02-26T00:01:11;18.0;;;14.0;;
22675;SDS011;12521;43.310;21.876;2023-02-26T00:05:58;18.0;;;14.0;;
22675;SDS011;12521;43.310;21.876;2023-02-26T00:10:35;19.0;;;14.0;;
22675;SDS011;12521;43.310;21.876;2023-02-26T00:15:12;19.0;;;14.0;;
22675;SDS011;12521;43.310;21.876;2023-02-26T00:19:53;20.0;;;14.0;;
22675;SDS011;12521;43.310;21.876;2023-02-26T00:24:35;20.0;;;14.0;;
22675;SDS011;12521;43.310;21.876;2023-02-26T00:29:12;19.0;;;12.0;;
22675;SDS011;12521;43.310;21.876;2023-02-26T00:33:52;19.0;;;12.0;;
22675;SDS011;12521;43.310;21.876;2023-02-26T00:38:33;18.0;;;9.0;;
22675;SDS011;12521;43.310;21.876;2023-02-26T00:43:39;18.0;;;9.0;;
22675;SDS011;12521;43.310;21.876;2023-02-26T00:48:21;16.0;;;10.0;;
22675;SDS011;12521;43.310;21.876;2023-02-26T00:53:45;16.0;;;10.0;;
22675;SDS011;12521;43.310;21.876;2023-02-26T00:58:53;15.0;;;10.0;;
22675;SDS011;12521;43.310;21.876;2023-02-26T01:03:30;15.0;;;10.0;;
22675;SDS011;12521;43.310;21.876;2023-02-26T01:08:11;15.0;;;10.0;;
22675;SDS011;12521;43.310;21.876;2023-02-26T01:13:08;15.0;;;10.0;;
22675;SDS011;12521;43.310;21.876;2023-02-26T01:17:46;15.0;;;10.0;;
22675;SDS011;12521;43.310;21.876;2023-02-26T01:22:50;15.0;;;10.0;;
22675;SDS011;12521;43.310;21.876;2023-02-26T01:27:41;17.0;;;10.0;;
22675;SDS011;12521;43.310;21.876;2023-02-26T01:32:20;17.0;;;10.0;;
22675;SDS011;12521;43.310;21.876;2023-02-26T01:37:20;19.0;;;10.0;;
22675;SDS011;12521;43.310;21.876;2023-02-26T01:42:27;19.0;;;10.0;;
22675;SDS011;12521;43.310;21.876;2023-02-26T01:47:32;18.0;;;10.0;;
22675;SDS011;12521;43.310;21.876;2023-02-26T01:53:15;18.0;;;10.0;;
22675;SDS011;12521;43.310;21.876;2023-02-26T01:58:01;17.0;;;10.0;;
22675;SDS011;12521;43.310;21.876;2023-02-26T02:02:39;17.0;;;10.0;;
22675;SDS011;12521;43.310;21.876;2023-02-26T02:07:17;16.0;;;10.0;;
22675;SDS011;12521;43.310;21.876;2023-02-26T02:11:58;16.0;;;10.0;;
22675;SDS011;12521;43.310;21.876;2023-02-26T02:17:27;15.0;;;9.0;;
22675;SDS011;12521;43.310;21.876;2023-02-26T02:22:56;15.0;;;9.0;;
22675;SDS011;12521;43.310;21.876;2023-02-26T02:28:11;18.0;;;8.0;;
22675;SDS011;12521;43.310;21.876;2023-02-26T02:34:28;18.0;;;8.0;;
22675;SDS011;12521;43.310;21.876;2023-02-26T02:39:32;22.0;;;8.0;;
22675;SDS011;12521;43.310;21.876;2023-02-26T02:44:33;22.0;;;8.0;;
22675;SDS011;12521;43.310;21.876;2023-02-26T02:49:35;18.0;;;8.0;;
22675;SDS011;12521;43.310;21.876;2023-02-26T02:54:33;18.0;;;8.0;;
22675;SDS011;12521;43.310;21.876;2023-02-26T02:59:35;14.0;;;8.0;;
22675;SDS011;12521;43.310;21.876;2023-02-26T03:04:32;14.0;;;8.0;;
22675;SDS011;12521;43.310;21.876;2023-02-26T03:09:12;14.0;;;8.0;;
22675;SDS011;12521;43.310;21.876;2023-02-26T03:13:49;14.0;;;8.0;;
22675;SDS011;12521;43.310;21.876;2023-02-26T03:18:32;13.0;;;7.0;;
22675;SDS011;12521;43.310;21.876;2023-02-26T03:23:58;13.0;;;7.0;;
22675;SDS011;12521;43.310;21.876;2023-02-26T03:29:11;12.0;;;6.0;;
22675;SDS011;12521;43.310;21.876;2023-02-26T03:34:27;12.0;;;6.0;;
22675;SDS011;12521;43.310;21.876;2023-02-26T03:39:32;12.0;;;6.0;;
22675;SDS011;12521;43.310;21.876;2023-02-26T03:44:27;12.0;;;6.0;;
22675;SDS011;12521;43.310;21.876;2023-02-26T03:49:23;12.0;;;6.0;;
22675;SDS011;12521;43.310;21.876;2023-02-26T03:54:20;12.0;;;6.0;;
22675;SDS011;12521;43.310;21.876;2023-02-26T03:59:11;11.0;;;6.0;;
22675;SDS011;12521;43.310;21.876;2023-02-26T04:03:52;11.0;;;6.0;;
22675;SDS011;12521;43.310;21.876;2023-02-26T04:08:46;10.0;;;6.0;;
22675;SDS011;12521;43.310;21.876;2023-02-26T04:13:23;10.0;;;6.0;;
22675;SDS011;12521;43.310;21.876;2023-02-26T04:18:01;9.0;;;5.0;;
22675;SDS011;12521;43.310;21.876;2023-02-26T04:22:38;9.0;;;5.0;;
22675;SDS011;12521;43.310;21.876;2023-02-26T04:27:14;8.0;;;5.0;;
22675;SDS011;12521;43.310;21.876;2023-02-26T04:31:51;8.0;;;5.0;;
22675;SDS011;12521;43.310;21.876;2023-02-26T04:36:28;8.0;;;5.0;;
22675;SDS011;12521;43.310;21.876;2023-02-26T04:41:06;8.0;;;5.0;;
22675;SDS011;12521;43.310;21.876;2023-02-26T04:45:43;8.0;;;5.0;;
22675;SDS011;12521;43.310;21.876;2023-02-26T04:50:23;8.0;;;5.0;;
22675;SDS011;12521;43.310;21.876;2023-02-26T04:55:01;8.0;;;5.0;;
22675;SDS011;12521;43.310;21.876;2023-02-26T05:08:56;7.0;;;4.0;;
22675;SDS011;12521;43.310;21.876;2023-02-26T05:13:33;7.0;;;4.0;;
22675;SDS011;12521;43.310;21.876;2023-02-26T05:18:10;7.0;;;4.0;;
22675;SDS011;12521;43.310;21.876;2023-02-26T05:22:48;7.0;;;4.0;;
22675;SDS011;12521;43.310;21.876;2023-02-26T05:27:24;10.0;;;6.0;;
22675;SDS011;12521;43.310;21.876;2023-02-26T05:32:03;10.0;;;6.0;;
22675;SDS011;12521;43.310;21.876;2023-02-26T05:36:39;10.0;;;6.0;;
22675;SDS011;12521;43.310;21.876;2023-02-26T05:41:16;12.0;;;7.0;;
22675;SDS011;12521;43.310;21.876;2023-02-26T05:45:54;12.0;;;7.0;;
22675;SDS011;12521;43.310;21.876;2023-02-26T05:50:31;10.0;;;6.0;;
22675;SDS011;12521;43.310;21.876;2023-02-26T05:55:09;10.0;;;6.0;;
22675;SDS011;12521;43.310;21.876;2023-02-26T05:59:47;8.0;;;5.0;;
22675;SDS011;12521;43.310;21.876;2023-02-26T06:04:24;8.0;;;5.0;;
22675;SDS011;12521;43.310;21.876;2023-02-26T06:09:01;9.0;;;6.0;;
22675;SDS011;12521;43.310;21.876;2023-02-26T06:13:40;9.0;;;6.0;;
22675;SDS011;12521;43.310;21.876;2023-02-26T06:18:17;10.0;;;7.0;;
22675;SDS011;12521;43.310;21.876;2023-02-26T06:22:53;10.0;;;7.0;;
22675;SDS011;12521;43.310;21.876;2023-02-26T06:27:30;13.0;;;9.0;;
22675;SDS011;12521;43.310;21.876;2023-02-26T06:32:07;13.0;;;9.0;;
22675;SDS011;12521;43.310;21.876;2023-02-26T06:36:44;16.0;;;11.0;;
22675;SDS011;12521;43.310;21.876;2023-02-26T06:41:21;16.0;;;11.0;;
22675;SDS011;12521;43.310;21.876;2023-02-26T06:45:59;16.0;;;11.0;;
22675;SDS011;12521;43.310;21.876;2023-02-26T06:50:35;20.0;;;15.0;;
22675;SDS011;12521;43.310;21.876;2023-02-26T06:55:13;20.0;;;15.0;;
22675;SDS011;12521;43.310;21.876;2023-02-26T06:59:49;23.0;;;19.0;;
22675;SDS011;12521;43.310;21.876;2023-02-26T07:04:26;23.0;;;19.0;;
22675;SDS011;12521;43.310;21.876;2023-02-26T07:09:03;26.0;;;20.0;;
22675;SDS011;12521;43.310;21.876;2023-02-26T07:13:40;26.0;;;20.0;;
22675;SDS011;12521;43.310;21.876;2023-02-26T07:18:17;29.0;;;20.0;;
22675;SDS011;12521;43.310;21.876;2023-02-26T07:22:55;29.0;;;20.0;;
22675;SDS011;12521;43.310;21.876;2023-02-26T07:27:33;28.0;;;17.0;;
22675;SDS011;12521;43.310;21.876;2023-02-26T07:32:11;28.0;;;17.0;;
22675;SDS011;12521;43.310;21.876;2023-02-26T07:36:47;28.0;;;14.0;;
22675;SDS011;12521;43.310;21.876;2023-02-26T07:41:24;28.0;;;14.0;;
22675;SDS011;12521;43.310;21.876;2023-02-26T07:46:03;28.0;;;14.0;;
22675;SDS011;12521;43.310;21.876;2023-02-26T07:50:40;22.0;;;12.0;;
22675;SDS011;12521;43.310;21.876;2023-02-26T07:55:18;22.0;;;12.0;;
22675;SDS011;12521;43.310;21.876;2023-02-26T07:59:55;15.0;;;9.0;;
22675;SDS011;12521;43.310;21.876;2023-02-26T08:04:32;15.0;;;9.0;;
22675;SDS011;12521;43.310;21.876;2023-02-26T08:09:09;21.0;;;14.0;;
22675;SDS011;12521;43.310;21.876;2023-02-26T08:13:46;21.0;;;14.0;;
22675;SDS011;12521;43.310;21.876;2023-02-26T08:18:22;27.0;;;19.0;;
22675;SDS011;12521;43.310;21.876;2023-02-26T08:22:59;27.0;;;19.0;;
22675;SDS011;12521;43.310;21.876;2023-02-26T08:27:37;28.0;;;19.0;;
22675;SDS011;12521;43.310;21.876;2023-02-26T08:32:17;28.0;;;19.0;;
22675;SDS011;12521;43.310;21.876;2023-02-26T08:36:55;30.0;;;19.0;;
22675;SDS011;12521;43.310;21.876;2023-02-26T08:41:32;30.0;;;19.0;;
22675;SDS011;12521;43.310;21.876;2023-02-26T08:46:09;30.0;;;19.0;;
22675;SDS011;12521;43.310;21.876;2023-02-26T08:50:47;34.0;;;24.0;;
22675;SDS011;12521;43.310;21.876;2023-02-26T08:55:25;34.0;;;24.0;;
22675;SDS011;12521;43.310;21.876;2023-02-26T09:00:06;39.0;;;29.0;;
22675;SDS011;12521;43.310;21.876;2023-02-26T09:04:46;39.0;;;29.0;;
22675;SDS011;12521;43.310;21.876;2023-02-26T09:09:22;43.0;;;30.0;;
22675;SDS011;12521;43.310;21.876;2023-02-26T09:13:59;43.0;;;30.0;;
22675;SDS011;12521;43.310;21.876;2023-02-26T09:18:36;47.0;;;30.0;;
22675;SDS011;12521;43.310;21.876;2023-02-26T09:23:13;47.0;;;30.0;;
22675;SDS011;12521;43.310;21.876;2023-02-26T09:27:50;51.0;;;36.0;;
22675;SDS011;12521;43.310;21.876;2023-02-26T09:32:26;51.0;;;36.0;;
22675;SDS011;12521;43.310;21.876;2023-02-26T09:37:08;55.0;;;43.0;;
22675;SDS011;12521;43.310;21.876;2023-02-26T09:41:59;55.0;;;43.0;;
22675;SDS011;12521;43.310;21.876;2023-02-26T09:47:11;49.0;;;35.0;;
22675;SDS011;12521;43.310;21.876;2023-02-26T09:52:26;49.0;;;35.0;;
22675;SDS011;12521;43.310;21.876;2023-02-26T09:57:31;43.0;;;27.0;;
22675;SDS011;12521;43.310;21.876;2023-02-26T10:02:35;43.0;;;27.0;;
22675;SDS011;12521;43.310;21.876;2023-02-26T10:07:53;35.0;;;24.0;;
22675;SDS011;12521;43.310;21.876;2023-02-26T10:12:45;35.0;;;24.0;;
22675;SDS011;12521;43.310;21.876;2023-02-26T10:17:50;27.0;;;22.0;;
22675;SDS011;12521;43.310;21.876;2023-02-26T10:22:55;27.0;;;22.0;;
22675;SDS011;12521;43.310;21.876;2023-02-26T10:27:59;30.0;;;26.0;;
22675;SDS011;12521;43.310;21.876;2023-02-26T10:33:03;30.0;;;26.0;;
22675;SDS011;12521;43.310;21.876;2023-02-26T10:37:58;34.0;;;29.0;;
22675;SDS011;12521;43.310;21.876;2023-02-26T10:42:51;34.0;;;29.0;;
22675;SDS011;12521;43.310;21.876;2023-02-26T10:48:00;34.0;;;27.0;;
22675;SDS011;12521;43.310;21.876;2023-02-26T10:52:50;34.0;;;27.0;;
22675;SDS011;12521;43.310;21.876;2023-02-26T10:57:37;33.0;;;25.0;;
22675;SDS011;12521;43.310;21.876;2023-02-26T11:02:37;33.0;;;25.0;;
22675;SDS011;12521;43.310;21.876;2023-02-26T11:07:15;26.0;;;21.0;;
22675;SDS011;12521;43.310;21.876;2023-02-26T11:12:04;26.0;;;21.0;;
22675;SDS011;12521;43.310;21.876;2023-02-26T11:17:00;19.0;;;17.0;;
22675;SDS011;12521;43.310;21.876;2023-02-26T11:21:56;19.0;;;17.0;;
22675;SDS011;12521;43.310;21.876;2023-02-26T11:26:47;19.0;;;17.0;;
22675;SDS011;12521;43.310;21.876;2023-02-26T11:31:34;34.0;;;26.0;;
22675;SDS011;12521;43.310;21.876;2023-02-26T11:36:18;34.0;;;26.0;;
22675;SDS011;12521;43.310;21.876;2023-02-26T11:41:13;48.0;;;35.0;;
22675;SDS011;12521;43.310;21.876;2023-02-26T11:45:59;48.0;;;35.0;;
22675;SDS011;12521;43.310;21.876;2023-02-26T11:50:47;34.0;;;28.0;;
22675;SDS011;12521;43.310;21.876;2023-02-26T11:55:45;34.0;;;28.0;;
22675;SDS011;12521;43.310;21.876;2023-02-26T12:00:38;21.0;;;20.0;;
22675;SDS011;12521;43.310;21.876;2023-02-26T12:05:17;21.0;;;20.0;;
22675;SDS011;12521;43.310;21.876;2023-02-26T12:09:54;21.0;;;20.0;;
22675;SDS011;12521;43.310;21.876;2023-02-26T12:15:05;21.0;;;20.0;;
22675;SDS011;12521;43.310;21.876;2023-02-26T12:20:26;21.0;;;19.0;;
22675;SDS011;12521;43.310;21.876;2023-02-26T12:26:04;21.0;;;19.0;;
22675;SDS011;12521;43.310;21.876;2023-02-26T12:31:42;23.0;;;20.0;;
22675;SDS011;12521;43.310;21.876;2023-02-26T12:37:31;25.0;;;20.0;;
22675;SDS011;12521;43.310;21.876;2023-02-26T12:43:02;25.0;;;20.0;;
22675;SDS011;12521;43.310;21.876;2023-02-26T12:48:38;24.0;;;19.0;;
22675;SDS011;12521;43.310;21.876;2023-02-26T12:54:37;24.0;;;19.0;;
22675;SDS011;12521;43.310;21.876;2023-02-26T13:00:27;23.0;;;18.0;;
22675;SDS011;12521;43.310;21.876;2023-02-26T13:06:26;23.0;;;18.0;;
22675;SDS011;12521;43.310;21.876;2023-02-26T13:12:00;20.0;;;16.0;;
22675;SDS011;12521;43.310;21.876;2023-02-26T13:17:15;18.0;;;15.0;;
22675;SDS011;12521;43.310;21.876;2023-02-26T13:22:20;18.0;;;15.0;;
22675;SDS011;12521;43.310;21.876;2023-02-26T13:27:10;23.0;;;19.0;;
22675;SDS011;12521;43.310;21.876;2023-02-26T13:32:00;23.0;;;19.0;;
22675;SDS011;12521;43.310;21.876;2023-02-26T13:36:48;23.0;;;19.0;;
22675;SDS011;12521;43.310;21.876;2023-02-26T13:41:47;28.0;;;23.0;;
22675;SDS011;12521;43.310;21.876;2023-02-26T13:47:29;22.0;;;19.0;;
22675;SDS011;12521;43.310;21.876;2023-02-26T13:52:53;22.0;;;19.0;;
22675;SDS011;12521;43.310;21.876;2023-02-26T13:58:37;17.0;;;15.0;;
22675;SDS011;12521;43.310;21.876;2023-02-26T14:03:36;17.0;;;15.0;;
22675;SDS011;12521;43.310;21.876;2023-02-26T14:08:48;20.0;;;18.0;;
22675;SDS011;12521;43.310;21.876;2023-02-26T14:13:39;20.0;;;18.0;;
22675;SDS011;12521;43.310;21.876;2023-02-26T14:18:35;23.0;;;20.0;;
22675;SDS011;12521;43.310;21.876;2023-02-26T14:23:36;23.0;;;20.0;;
22675;SDS011;12521;43.310;21.876;2023-02-26T14:28:45;24.0;;;20.0;;
22675;SDS011;12521;43.310;21.876;2023-02-26T14:34:12;24.0;;;20.0;;
22675;SDS011;12521;43.310;21.876;2023-02-26T14:39:05;25.0;;;19.0;;
22675;SDS011;12521;43.310;21.876;2023-02-26T14:44:18;25.0;;;19.0;;
22675;SDS011;12521;43.310;21.876;2023-02-26T14:49:14;24.0;;;19.0;;
22675;SDS011;12521;43.310;21.876;2023-02-26T14:54:41;24.0;;;19.0;;
22675;SDS011;12521;43.310;21.876;2023-02-26T15:00:27;22.0;;;19.0;;
22675;SDS011;12521;43.310;21.876;2023-02-26T15:05:45;22.0;;;19.0;;
22675;SDS011;12521;43.310;21.876;2023-02-26T15:11:45;22.0;;;20.0;;
22675;SDS011;12521;43.310;21.876;2023-02-26T15:17:17;22.0;;;20.0;;
22675;SDS011;12521;43.310;21.876;2023-02-26T15:23:09;22.0;;;20.0;;
22675;SDS011;12521;43.310;21.876;2023-02-26T15:28:26;22.0;;;20.0;;
22675;SDS011;12521;43.310;21.876;2023-02-26T15:33:14;22.0;;;20.0;;
22675;SDS011;12521;43.310;21.876;2023-02-26T15:38:01;23.0;;;20.0;;
22675;SDS011;12521;43.310;21.876;2023-02-26T15:42:47;23.0;;;20.0;;
22675;SDS011;12521;43.310;21.876;2023-02-26T15:47:33;22.0;;;20.0;;
22675;SDS011;12521;43.310;21.876;2023-02-26T15:52:19;22.0;;;20.0;;
22675;SDS011;12521;43.310;21.876;2023-02-26T15:57:03;22.0;;;20.0;;
22675;SDS011;12521;43.310;21.876;2023-02-26T16:01:40;22.0;;;21.0;;
22675;SDS011;12521;43.310;21.876;2023-02-26T16:06:26;22.0;;;21.0;;
22675;SDS011;12521;43.310;21.876;2023-02-26T16:11:11;28.0;;;25.0;;
22675;SDS011;12521;43.310;21.876;2023-02-26T16:15:50;28.0;;;25.0;;
22675;SDS011;12521;43.310;21.876;2023-02-26T16:20:39;35.0;;;29.0;;
22675;SDS011;12521;43.310;21.876;2023-02-26T16:25:35;35.0;;;29.0;;
22675;SDS011;12521;43.310;21.876;2023-02-26T16:30:36;34.0;;;30.0;;
22675;SDS011;12521;43.310;21.876;2023-02-26T16:35:33;34.0;;;30.0;;
22675;SDS011;12521;43.310;21.876;2023-02-26T16:40:34;34.0;;;30.0;;
22675;SDS011;12521;43.310;21.876;2023-02-26T16:45:47;34.0;;;30.0;;
22675;SDS011;12521;43.310;21.876;2023-02-26T16:50:37;34.0;;;27.0;;
22675;SDS011;12521;43.310;21.876;2023-02-26T16:55:14;34.0;;;27.0;;
22675;SDS011;12521;43.310;21.876;2023-02-26T17:00:00;33.0;;;24.0;;
22675;SDS011;12521;43.310;21.876;2023-02-26T17:05:01;33.0;;;24.0;;
22675;SDS011;12521;43.310;21.876;2023-02-26T17:10:08;40.0;;;32.0;;
22675;SDS011;12521;43.310;21.876;2023-02-26T17:15:18;40.0;;;32.0;;
22675;SDS011;12521;43.310;21.876;2023-02-26T17:20:10;48.0;;;39.0;;
22675;SDS011;12521;43.310;21.876;2023-02-26T17:24:48;48.0;;;39.0;;
22675;SDS011;12521;43.310;21.876;2023-02-26T17:29:34;42.0;;;34.0;;
22675;SDS011;12521;43.310;21.876;2023-02-26T17:34:18;42.0;;;34.0;;
22675;SDS011;12521;43.310;21.876;2023-02-26T17:38:56;35.0;;;29.0;;
22675;SDS011;12521;43.310;21.876;2023-02-26T17:43:33;35.0;;;29.0;;
22675;SDS011;12521;43.310;21.876;2023-02-26T17:48:13;34.0;;;28.0;;
22675;SDS011;12521;43.310;21.876;2023-02-26T17:52:52;34.0;;;28.0;;
22675;SDS011;12521;43.310;21.876;2023-02-26T17:57:29;32.0;;;28.0;;
22675;SDS011;12521;43.310;21.876;2023-02-26T18:02:20;32.0;;;28.0;;
22675;SDS011;12521;43.310;21.876;2023-02-26T18:07:00;32.0;;;28.0;;
22675;SDS011;12521;43.310;21.876;2023-02-26T18:11:38;34.0;;;29.0;;
22675;SDS011;12521;43.310;21.876;2023-02-26T18:16:26;34.0;;;29.0;;
22675;SDS011;12521;43.310;21.876;2023-02-26T18:21:11;35.0;;;30.0;;
22675;SDS011;12521;43.310;21.876;2023-02-26T18:25:53;35.0;;;30.0;;
22675;SDS011;12521;43.310;21.876;2023-02-26T18:30:34;36.0;;;28.0;;
22675;SDS011;12521;43.310;21.876;2023-02-26T18:35:11;36.0;;;28.0;;
22675;SDS011;12521;43.310;21.876;2023-02-26T18:39:47;38.0;;;25.0;;
22675;SDS011;12521;43.310;21.876;2023-02-26T18:44:25;38.0;;;25.0;;
22675;SDS011;12521;43.310;21.876;2023-02-26T18:49:01;40.0;;;29.0;;
22675;SDS011;12521;43.310;21.876;2023-02-26T18:53:38;40.0;;;29.0;;
22675;SDS011;12521;43.310;21.876;2023-02-26T18:58:14;41.0;;;33.0;;
22675;SDS011;12521;43.310;21.876;2023-02-26T19:02:51;41.0;;;33.0;;
22675;SDS011;12521;43.310;21.876;2023-02-26T19:07:27;41.0;;;33.0;;
22675;SDS011;12521;43.310;21.876;2023-02-26T19:12:05;88.0;;;61.0;;
22675;SDS011;12521;43.310;21.876;2023-02-26T19:16:43;88.0;;;61.0;;
22675;SDS011;12521;43.310;21.876;2023-02-26T19:21:19;136.0;;;89.0;;
22675;SDS011;12521;43.310;21.876;2023-02-26T19:25:56;136.0;;;89.0;;
22675;SDS011;12521;43.310;21.876;2023-02-26T19:30:32;88.0;;;62.0;;
22675;SDS011;12521;43.310;21.876;2023-02-26T19:35:09;88.0;;;62.0;;
22675;SDS011;12521;43.310;21.876;2023-02-26T19:39:46;40.0;;;35.0;;
22675;SDS011;12521;43.310;21.876;2023-02-26T19:44:25;40.0;;;35.0;;
22675;SDS011;12521;43.310;21.876;2023-02-26T19:49:02;42.0;;;32.0;;
22675;SDS011;12521;43.310;21.876;2023-02-26T19:53:39;42.0;;;32.0;;
22675;SDS011;12521;43.310;21.876;2023-02-26T19:58:16;44.0;;;30.0;;
22675;SDS011;12521;43.310;21.876;2023-02-26T20:02:53;44.0;;;30.0;;
22675;SDS011;12521;43.310;21.876;2023-02-26T20:07:29;44.0;;;30.0;;
22675;SDS011;12521;43.310;21.876;2023-02-26T20:12:07;40.0;;;29.0;;
22675;SDS011;12521;43.310;21.876;2023-02-26T20:16:44;40.0;;;29.0;;
22675;SDS011;12521;43.310;21.876;2023-02-26T20:21:20;35.0;;;28.0;;
22675;SDS011;12521;43.310;21.876;2023-02-26T20:25:57;35.0;;;28.0;;
22675;SDS011;12521;43.310;21.876;2023-02-26T20:30:34;32.0;;;26.0;;
22675;SDS011;12521;43.310;21.876;2023-02-26T20:35:11;32.0;;;26.0;;
22675;SDS011;12521;43.310;21.876;2023-02-26T20:39:48;29.0;;;23.0;;
22675;SDS011;12521;43.310;21.876;2023-02-26T20:44:25;29.0;;;23.0;;
22675;SDS011;12521;43.310;21.876;2023-02-26T20:49:02;31.0;;;26.0;;
22675;SDS011;12521;43.310;21.876;2023-02-26T20:53:39;31.0;;;26.0;;
22675;SDS011;12521;43.310;21.876;2023-02-26T20:58:16;33.0;;;28.0;;
22675;SDS011;12521;43.310;21.876;2023-02-26T21:02:53;33.0;;;28.0;;
22675;SDS011;12521;43.310;21.876;2023-02-26T21:07:30;33.0;;;28.0;;
22675;SDS011;12521;43.310;21.876;2023-02-26T21:12:06;34.0;;;28.0;;
22675;SDS011;12521;43.310;21.876;2023-02-26T21:16:43;34.0;;;28.0;;
22675;SDS011;12521;43.310;21.876;2023-02-26T21:21:19;36.0;;;29.0;;
22675;SDS011;12521;43.310;21.876;2023-02-26T21:25:56;36.0;;;29.0;;
22675;SDS011;12521;43.310;21.876;2023-02-26T21:30:34;34.0;;;27.0;;
22675;SDS011;12521;43.310;21.876;2023-02-26T21:35:11;34.0;;;27.0;;
22675;SDS011;12521;43.310;21.876;2023-02-26T21:39:48;33.0;;;25.0;;
22675;SDS011;12521;43.310;21.876;2023-02-26T21:44:26;33.0;;;25.0;;
22675;SDS011;12521;43.310;21.876;2023-02-26T21:49:02;34.0;;;27.0;;
22675;SDS011;12521;43.310;21.876;2023-02-26T21:53:39;34.0;;;27.0;;
22675;SDS011;12521;43.310;21.876;2023-02-26T21:58:16;35.0;;;29.0;;
22675;SDS011;12521;43.310;21.876;2023-02-26T22:02:53;35.0;;;29.0;;
22675;SDS011;12521;43.310;21.876;2023-02-26T22:07:30;35.0;;;29.0;;
22675;SDS011;12521;43.310;21.876;2023-02-26T22:12:07;30.0;;;26.0;;
22675;SDS011;12521;43.310;21.876;2023-02-26T22:16:44;30.0;;;26.0;;
22675;SDS011;12521;43.310;21.876;2023-02-26T22:21:21;26.0;;;24.0;;
22675;SDS011;12521;43.310;21.876;2023-02-26T22:25:58;26.0;;;24.0;;
22675;SDS011;12521;43.310;21.876;2023-02-26T22:30:35;25.0;;;23.0;;
22675;SDS011;12521;43.310;21.876;2023-02-26T22:35:11;25.0;;;23.0;;
22675;SDS011;12521;43.310;21.876;2023-02-26T22:39:48;24.0;;;22.0;;
22675;SDS011;12521;43.310;21.876;2023-02-26T22:44:25;24.0;;;22.0;;
22675;SDS011;12521;43.310;21.876;2023-02-26T22:49:01;22.0;;;20.0;;
22675;SDS011;12521;43.310;21.876;2023-02-26T22:53:37;22.0;;;20.0;;
22675;SDS011;12521;43.310;21.876;2023-02-26T22:58:14;20.0;;;17.0;;
22675;SDS011;12521;43.310;21.876;2023-02-26T23:02:50;20.0;;;17.0;;
22675;SDS011;12521;43.310;21.876;2023-02-26T23:07:26;20.0;;;17.0;;
22675;SDS011;12521;43.310;21.876;2023-02-26T23:12:04;20.0;;;18.0;;
22675;SDS011;12521;43.310;21.876;2023-02-26T23:16:41;20.0;;;18.0;;
22675;SDS011;12521;43.310;21.876;2023-02-26T23:21:18;19.0;;;18.0;;
22675;SDS011;12521;43.310;21.876;2023-02-26T23:25:55;19.0;;;18.0;;
22675;SDS011;12521;43.310;21.876;2023-02-26T23:30:31;16.0;;;15.0;;
22675;SDS011;12521;43.310;21.876;2023-02-26T23:35:09;16.0;;;15.0;;
22675;SDS011;12521;43.310;21.876;2023-02-26T23:39:45;13.0;;;12.0;;
22675;SDS011;12521;43.310;21.876;2023-02-26T23:44:24;13.0;;;12.0;;
22675;SDS011;12521;43.310;21.876;2023-02-26T23:49:01;16.0;;;15.0;;
22675;SDS011;12521;43.310;21.876;2023-02-26T23:53:38;16.0;;;15.0;;
22675;SDS011;12521;43.310;21.876;2023-02-26T23:58:14;19.0;;;18.0;;
